Time;durP1;ratioP1;P1;durP2;ratioP2;P2;SDS_P1;SDS_P2;PMS_P1;PMS_P2;Temp;Humidity;BMP_temperature;BMP_pressure;BME280_temperature;BME280_humidity;BME280_pressure;Samples;Min_cycle;Max_cycle;Signal;HPM_P1;HPM_P2
2023/05/26 00:01:48;;;;;;;27.40;6.57;;;9.50;99.90;;;-144.05;67.38;56897.69;5035905;28;20087;-77
2023/05/26 00:04:17;;;;;;;26.48;6.50;;;9.50;99.90;;;-144.05;67.73;56921.06;5018331;28;20056;-76
2023/05/26 00:06:52;;;;;;;27.27;5.85;;;9.40;99.90;;;-144.05;67.96;56906.19;5035809;28;20053;-77
2023/05/26 00:09:23;;;;;;;31.63;7.70;;;9.40;99.90;;;-144.05;68.26;56916.81;5035885;28;20402;-78
2023/05/26 00:11:49;;;;;;;30.77;7.00;;;9.40;99.90;;;-144.05;67.94;56897.69;5039554;28;20104;-78
2023/05/26 00:14:16;;;;;;;34.10;7.20;;;9.40;99.90;;;-144.05;68.23;56908.31;5035910;28;20040;-78
2023/05/26 00:16:46;;;;;;;31.65;6.47;;;9.40;99.90;;;-144.05;68.01;56923.19;5034528;28;20029;-76
2023/05/26 00:19:12;;;;;;;21.92;6.53;;;9.30;99.90;;;-144.05;68.45;56914.69;5035905;28;20026;-78
2023/05/26 00:21:41;;;;;;;25.88;5.72;;;9.40;99.90;;;-144.05;67.54;56906.19;5034015;28;20116;-78
2023/05/26 00:24:07;;;;;;;26.27;6.28;;;9.40;99.90;;;-144.05;67.71;56906.19;5035482;28;20487;-79
2023/05/26 00:26:33;;;;;;;41.63;5.85;;;9.50;99.90;;;-144.05;67.42;56925.28;5035932;28;20120;-79
2023/05/26 00:28:59;;;;;;;30.73;6.10;;;9.50;99.90;;;-144.05;66.48;56891.31;5035525;28;20105;-78
2023/05/26 00:31:25;;;;;;;29.88;5.75;;;9.50;99.90;;;-144.05;66.97;56906.19;5035611;28;20049;-79
2023/05/26 00:33:51;;;;;;;33.13;7.20;;;9.50;99.90;;;-144.05;66.35;56906.19;5035332;28;20394;-78
2023/05/26 00:36:17;;;;;;;25.92;5.05;;;9.40;99.90;;;-144.05;66.90;56908.31;5035744;28;20037;-79
2023/05/26 00:38:43;;;;;;;29.20;5.93;;;9.50;99.90;;;-144.05;66.83;56908.31;5035786;28;20025;-78
2023/05/26 00:41:09;;;;;;;26.40;6.20;;;9.40;99.90;;;-144.05;66.96;56918.94;5035272;28;20450;-79
2023/05/26 00:43:34;;;;;;;28.15;5.78;;;9.30;99.90;;;-144.05;66.86;56921.06;5035940;28;20561;-79
2023/05/26 00:46:00;;;;;;;19.02;5.15;;;9.30;99.90;;;-144.05;66.99;56912.56;5035468;28;20176;-79
2023/05/26 00:48:26;;;;;;;23.08;5.53;;;9.20;99.90;;;-144.05;67.28;56914.69;5035748;28;20371;-79
2023/05/26 00:50:53;;;;;;;25.08;4.68;;;9.20;99.90;;;-144.05;67.00;56910.44;5034211;28;20021;-79
2023/05/26 00:53:19;;;;;;;18.83;5.07;;;9.20;99.90;;;-144.05;67.18;56921.06;5034469;28;20055;-80
2023/05/26 00:55:53;;;;;;;27.10;5.68;;;9.10;99.90;;;-144.05;67.59;56929.53;5035608;28;20107;-78
2023/05/26 00:58:19;;;;;;;34.38;6.07;;;9.10;99.90;;;-144.05;67.96;56916.81;5039411;28;20502;-79
2023/05/26 01:00:45;;;;;;;26.35;5.22;;;9.00;99.90;;;-144.05;67.90;56918.94;5036972;28;20049;-79
2023/05/26 01:03:14;;;;;;;19.25;5.22;;;9.00;99.90;;;-144.05;68.03;56887.06;5042324;28;20053;-78
2023/05/26 01:05:40;;;;;;;27.05;5.72;;;9.00;99.90;;;-144.05;67.98;56923.19;5050806;28;20030;-78
2023/05/26 01:08:06;;;;;;;25.50;5.30;;;9.00;99.90;;;-144.05;68.39;56921.06;5049247;28;20039;-78
2023/05/26 01:10:33;;;;;;;25.02;6.60;;;8.90;99.90;;;-144.05;67.86;56908.31;5042624;28;20025;-79
2023/05/26 01:13:11;;;;;;;35.60;6.63;;;8.80;99.90;;;-144.05;68.75;56908.31;5037997;28;20033;-80
2023/05/26 01:15:48;;;;;;;28.42;6.25;;;8.80;99.90;;;-144.05;68.92;56910.44;5036253;28;20030;-79
2023/05/26 01:18:29;;;;;;;32.88;6.97;;;8.80;99.90;;;-144.05;68.59;56929.53;5034781;28;20041;-78
2023/05/26 01:21:12;;;;;;;31.33;5.95;;;8.80;99.90;;;-144.05;69.07;56923.19;5034724;28;20036;-79
2023/05/26 01:24:39;;;;;;;31.15;7.38;;;8.80;99.90;;;-144.05;69.23;56908.31;5016722;28;20029;-78
2023/05/26 01:28:06;;;;;;;28.50;5.40;;;8.70;99.90;;;-144.05;69.80;56910.44;5016193;28;20446;-78
2023/05/26 01:30:35;;;;;;;30.70;6.53;;;8.70;99.90;;;-144.05;69.60;56942.28;4973385;28;20092;-76
2023/05/26 01:33:01;;;;;;;26.67;5.95;;;8.70;99.90;;;-144.05;69.63;56916.81;4972905;28;20031;-78
2023/05/26 01:35:28;;;;;;;33.38;5.93;;;8.60;99.90;;;-144.05;69.56;56895.56;5012458;28;20037;-79
2023/05/26 01:37:56;;;;;;;28.92;5.70;;;8.60;99.90;;;-144.05;69.85;56916.81;5034196;28;20029;-80
2023/05/26 01:40:23;;;;;;;29.10;5.60;;;8.60;99.90;;;-144.05;70.53;56912.56;5032502;28;20039;-79
2023/05/26 01:43:11;;;;;;;23.85;6.07;;;8.50;99.90;;;-144.05;70.55;56912.56;5034301;28;20073;-77
2023/05/26 01:45:59;;;;;;;27.02;5.07;;;8.50;99.90;;;-144.05;70.26;56914.69;5035354;28;20491;-78
2023/05/26 01:48:29;;;;;;;28.52;6.40;;;8.40;99.90;;;-144.05;70.40;56912.56;5035724;28;20029;-77
2023/05/26 01:51:00;;;;;;;26.23;6.30;;;8.40;99.90;;;-144.05;70.66;56910.44;5035549;28;20055;-79
2023/05/26 01:53:35;;;;;;;26.92;5.85;;;8.40;99.90;;;-144.05;70.78;56895.56;5036034;28;20017;-78
2023/05/26 01:56:03;;;;;;;26.23;5.47;;;8.30;99.90;;;-144.05;71.19;56923.19;5017567;28;20247;-79
2023/05/26 01:58:31;;;;;;;27.25;6.43;;;8.20;99.90;;;-144.05;71.54;56895.56;5034060;28;20402;-79
2023/05/26 02:00:58;;;;;;;28.70;6.55;;;8.20;99.90;;;-144.05;71.32;56904.06;5035207;28;20030;-79
2023/05/26 02:03:25;;;;;;;36.10;7.38;;;8.10;99.90;;;-144.05;72.09;56914.69;5035324;28;20033;-78
2023/05/26 02:05:51;;;;;;;25.70;6.53;;;8.10;99.90;;;-144.05;72.04;56910.44;5034074;28;20044;-79
2023/05/26 02:08:17;;;;;;;33.85;6.57;;;8.10;99.90;;;-144.05;72.22;56904.06;5034665;28;20476;-79
2023/05/26 02:10:42;;;;;;;23.17;6.18;;;8.10;99.90;;;-144.05;72.29;56935.91;5034697;28;20120;-78
2023/05/26 02:13:08;;;;;;;23.75;5.85;;;8.10;99.90;;;-144.05;72.43;56923.19;5034969;28;20029;-77
2023/05/26 02:15:34;;;;;;;24.92;5.20;;;8.00;99.90;;;-144.05;72.51;56906.19;5033025;28;20028;-79
2023/05/26 02:18:00;;;;;;;24.73;5.68;;;8.00;99.90;;;-144.05;72.49;56910.44;5034152;28;20037;-79
2023/05/26 02:20:26;;;;;;;33.67;5.70;;;7.90;99.90;;;-144.05;73.01;56925.28;5034520;28;20029;-79
2023/05/26 02:22:52;;;;;;;30.02;6.90;;;7.80;99.90;;;-144.05;73.18;56921.06;5034728;28;20029;-78
2023/05/26 02:25:19;;;;;;;27.45;5.85;;;7.80;99.90;;;-144.05;73.28;56933.78;5034218;28;20037;-78
2023/05/26 02:27:44;;;;;;;27.17;6.80;;;7.70;99.90;;;-144.05;73.44;56914.69;5032858;28;20395;-78
2023/05/26 02:30:14;;;;;;;27.73;6.20;;;7.70;99.90;;;-144.05;73.33;56912.56;5034103;28;20033;-78
2023/05/26 02:32:39;;;;;;;23.05;4.90;;;7.60;99.90;;;-144.05;73.81;56923.19;5033813;28;20064;-79
2023/05/26 02:35:07;;;;;;;26.75;6.43;;;7.60;99.90;;;-144.05;73.82;56904.06;5033962;28;20026;-77
2023/05/26 02:37:33;;;;;;;30.25;6.75;;;7.60;99.90;;;-144.05;73.85;56923.19;5033049;28;20056;-79
2023/05/26 02:39:59;;;;;;;22.75;5.78;;;7.60;99.90;;;-144.05;74.14;56880.69;5032781;28;20474;-79
2023/05/26 02:42:24;;;;;;;33.10;6.97;;;7.60;99.90;;;-144.05;74.24;56914.69;5033107;28;20041;-79
2023/05/26 02:44:50;;;;;;;21.30;6.43;;;7.60;99.90;;;-144.05;74.08;56942.28;5033529;28;20037;-79
2023/05/26 02:47:17;;;;;;;20.50;6.00;;;7.50;99.90;;;-144.05;74.12;56925.28;5032060;28;20513;-78
2023/05/26 02:49:43;;;;;;;28.17;5.93;;;7.60;99.90;;;-144.05;74.29;56931.66;5033356;28;20093;-79
2023/05/26 02:52:09;;;;;;;27.45;6.43;;;7.50;99.90;;;-144.05;74.18;56908.31;5033351;28;20025;-79
2023/05/26 02:54:35;;;;;;;24.10;5.75;;;7.50;99.90;;;-144.05;74.33;56961.41;5031849;28;20029;-77
2023/05/26 02:57:01;;;;;;;27.10;6.22;;;7.40;99.90;;;-144.05;74.77;56918.94;5031455;28;20029;-77
2023/05/26 02:59:27;;;;;;;24.52;5.60;;;7.30;99.90;;;-144.05;74.91;56933.78;5032799;28;20036;-77
2023/05/26 03:01:52;;;;;;;24.20;6.80;;;7.30;99.90;;;-144.05;74.73;56931.66;5031191;28;20029;-78
2023/05/26 03:04:18;;;;;;;29.05;8.60;;;7.30;99.90;;;-144.05;75.31;56925.28;5032912;28;20498;-78
2023/05/26 03:06:44;;;;;;;24.17;6.00;;;7.30;99.90;;;-144.05;75.37;56927.41;5039345;28;20040;-77
2023/05/26 03:09:10;;;;;;;31.73;5.55;;;7.30;99.90;;;-144.05;75.35;56931.66;5050196;28;20021;-77
2023/05/26 03:11:36;;;;;;;41.58;6.68;;;7.30;99.90;;;-144.05;75.54;56935.91;5048207;28;20025;-78
2023/05/26 03:14:01;;;;;;;22.88;5.38;;;7.30;99.90;;;-144.05;75.89;56938.03;5046371;28;20029;-77
2023/05/26 03:16:27;;;;;;;26.23;6.13;;;7.20;99.90;;;-144.05;75.67;56927.41;5047700;28;20033;-78
2023/05/26 03:18:54;;;;;;;35.03;7.22;;;7.20;99.90;;;-144.05;75.80;56921.06;5047055;28;20025;-77
2023/05/26 03:21:20;;;;;;;31.13;6.32;;;7.30;99.90;;;-144.05;75.74;56940.16;5042713;28;20026;-78
2023/05/26 03:23:46;;;;;;;30.85;7.30;;;7.30;99.90;;;-144.05;75.55;56942.28;5031320;28;20033;-78
2023/05/26 03:26:11;;;;;;;43.60;7.75;;;7.30;99.90;;;-144.05;75.88;56908.31;5032116;28;20525;-78
2023/05/26 03:28:37;;;;;;;39.72;8.85;;;7.30;99.90;;;-144.05;75.93;56921.06;5035718;28;20372;-79
2023/05/26 03:31:04;;;;;;;23.73;8.18;;;7.40;99.90;;;-144.05;76.30;56916.81;5038192;28;20030;-80
2023/05/26 03:33:31;;;;;;;30.17;7.05;;;7.40;99.90;;;-144.05;76.12;56891.31;5032888;28;20395;-77
2023/05/26 03:36:00;;;;;;;34.78;5.95;;;7.40;99.90;;;-144.05;76.27;56912.56;5033837;28;20021;-79
2023/05/26 03:38:27;;;;;;;28.05;6.05;;;7.50;99.90;;;-144.05;76.29;56929.53;5032953;28;20080;-78
2023/05/26 03:40:53;;;;;;;33.20;6.93;;;7.50;99.90;;;-144.05;76.15;56914.69;5032651;28;20127;-80
2023/05/26 03:43:19;;;;;;;31.77;6.70;;;7.50;99.90;;;-144.05;76.10;56904.06;5032943;28;20458;-79
2023/05/26 03:45:45;;;;;;;32.90;6.40;;;7.60;99.90;;;-144.05;76.02;56912.56;5031547;28;20037;-79
2023/05/26 03:48:14;;;;;;;39.00;8.98;;;7.60;99.90;;;-144.05;75.87;56893.44;5032468;28;20026;-78
2023/05/26 03:50:46;;;;;;;27.73;7.63;;;7.70;99.90;;;-144.05;75.42;56904.06;5032780;28;20157;-79
2023/05/26 03:53:13;;;;;;;35.45;6.25;;;7.70;99.90;;;-144.05;75.34;56918.94;5033750;28;20024;-80
2023/05/26 03:55:39;;;;;;;30.70;7.10;;;7.80;99.90;;;-144.05;75.18;56912.56;5031897;28;20344;-79
2023/05/26 03:58:04;;;;;;;29.92;6.70;;;7.80;99.90;;;-144.05;75.13;56931.66;5033542;28;20025;-79
2023/05/26 04:00:32;;;;;;;28.52;6.55;;;7.90;99.90;;;-144.05;74.84;56929.53;5033407;28;20025;-80
2023/05/26 04:02:59;;;;;;;27.48;6.13;;;7.90;99.90;;;-144.05;75.00;56944.41;5015436;28;20034;-79
2023/05/26 04:05:26;;;;;;;30.83;6.07;;;7.90;99.90;;;-144.05;74.64;56923.19;5032772;28;20025;-79
2023/05/26 04:07:52;;;;;;;39.72;6.72;;;8.00;99.90;;;-144.05;74.46;56908.31;5032906;28;20080;-79
2023/05/26 04:10:18;;;;;;;30.50;7.32;;;8.00;99.90;;;-144.05;74.55;56906.19;5014908;28;20034;-79
2023/05/26 04:12:44;;;;;;;31.27;5.85;;;8.00;99.90;;;-144.05;74.18;56904.06;5032815;28;20512;-79
2023/05/26 04:15:11;;;;;;;33.05;7.25;;;8.10;99.90;;;-144.05;74.49;56923.19;5032466;28;20436;-80
2023/05/26 04:17:37;;;;;;;36.03;6.85;;;8.10;99.90;;;-144.05;73.91;56938.03;5032563;28;20320;-80
2023/05/26 04:20:11;;;;;;;24.77;6.80;;;8.20;99.90;;;-144.05;73.82;56923.19;5032695;28;20030;-79
2023/05/26 04:22:38;;;;;;;35.97;7.75;;;8.20;99.90;;;-144.05;73.40;56923.19;5032234;28;20034;-78
2023/05/26 04:25:05;;;;;;;34.25;6.57;;;8.30;99.90;;;-144.05;73.49;56908.31;5032287;28;20034;-78
2023/05/26 04:27:31;;;;;;;27.85;6.20;;;8.30;99.90;;;-144.05;73.32;56923.19;5031820;28;20495;-79
2023/05/26 04:29:58;;;;;;;23.35;6.93;;;8.40;99.90;;;-144.05;73.09;56906.19;5033720;28;20057;-80
2023/05/26 04:32:27;;;;;;;28.63;6.25;;;8.40;99.90;;;-144.05;72.90;56923.19;5035728;28;20021;-78
2023/05/26 04:34:53;;;;;;;33.58;6.10;;;8.50;99.90;;;-144.05;72.65;56908.31;5036310;28;20394;-78
2023/05/26 04:37:19;;;;;;;30.25;6.63;;;8.50;99.90;;;-144.05;72.56;56897.69;5035636;28;20402;-78
2023/05/26 04:39:45;;;;;;;34.83;7.25;;;8.50;99.90;;;-144.05;72.44;56895.56;5035648;28;20025;-78
2023/05/26 04:42:12;;;;;;;24.83;7.30;;;8.60;99.90;;;-144.05;71.99;56916.81;5017421;28;20116;-78
2023/05/26 04:44:40;;;;;;;32.88;6.70;;;8.60;99.90;;;-144.05;72.04;56895.56;5035132;28;20483;-78
2023/05/26 04:47:09;;;;;;;31.15;6.80;;;8.70;99.90;;;-144.05;72.28;56908.31;5034846;28;20048;-78
2023/05/26 04:49:38;;;;;;;37.92;6.40;;;8.70;99.90;;;-144.05;71.18;56912.56;5034924;28;20057;-78
2023/05/26 04:52:04;;;;;;;34.85;7.60;;;8.70;99.90;;;-144.05;71.03;56878.56;5033251;28;20376;-78
2023/05/26 04:54:30;;;;;;;29.20;6.57;;;8.70;99.90;;;-144.05;71.22;56893.44;5034519;28;20025;-78
2023/05/26 04:56:56;;;;;;;41.33;8.32;;;8.80;99.90;;;-144.05;70.83;56878.56;5033146;28;20071;-78
2023/05/26 04:59:23;;;;;;;35.55;6.43;;;8.80;99.90;;;-144.05;70.42;56908.31;5034348;28;20043;-78
2023/05/26 05:01:50;;;;;;;40.88;7.88;;;8.80;99.90;;;-144.05;70.24;56906.19;5038368;28;20032;-78
2023/05/26 05:04:17;;;;;;;37.35;7.18;;;8.90;99.90;;;-144.05;70.33;56908.31;5040234;28;20518;-79
2023/05/26 05:06:44;;;;;;;32.95;7.00;;;8.90;99.90;;;-144.05;70.07;56887.06;5036241;28;20080;-79
2023/05/26 05:09:10;;;;;;;25.83;6.80;;;8.90;99.90;;;-144.05;70.35;56882.81;5036069;28;20480;-77
2023/05/26 05:11:35;;;;;;;32.53;7.80;;;8.90;99.90;;;-144.05;69.53;56906.19;5035987;28;20033;-78
2023/05/26 05:14:01;;;;;;;24.80;5.88;;;9.10;99.90;;;-144.05;69.50;56899.81;5035877;28;20032;-78
2023/05/26 05:16:27;;;;;;;29.38;5.80;;;9.20;99.90;;;-144.05;68.55;56891.31;5035292;28;20115;-78
2023/05/26 05:18:53;;;;;;;29.52;6.13;;;9.30;99.90;;;-144.05;67.98;56906.19;5035843;28;20036;-77
2023/05/26 05:21:19;;;;;;;27.58;6.15;;;9.40;99.90;;;-144.05;67.52;56887.06;5035971;28;20111;-78
2023/05/26 05:23:45;;;;;;;33.85;7.05;;;9.50;99.90;;;-144.05;67.10;56893.44;5035368;28;20025;-77
2023/05/26 05:26:11;;;;;;;35.60;6.55;;;9.50;99.90;;;-144.05;66.27;56901.94;5034794;28;20029;-79
2023/05/26 05:28:38;;;;;;;28.42;6.22;;;9.60;99.90;;;-144.05;65.68;56912.56;5034793;28;20044;-78
2023/05/26 05:31:04;;;;;;;38.97;6.85;;;9.70;99.90;;;-144.05;65.22;56912.56;5034790;28;20036;-79
2023/05/26 05:33:30;;;;;;;33.13;6.28;;;9.80;99.90;;;-144.05;64.82;56891.31;5035328;28;20025;-78
2023/05/26 05:35:56;;;;;;;29.35;7.38;;;9.80;99.90;;;-144.05;64.94;56925.28;5035983;28;20025;-78
2023/05/26 05:38:22;;;;;;;29.08;5.97;;;9.90;99.90;;;-144.05;63.79;56895.56;5036681;28;20037;-79
2023/05/26 05:40:48;;;;;;;31.85;6.20;;;10.00;99.90;;;-144.05;63.74;56878.56;5035048;28;20041;-79
2023/05/26 05:43:14;;;;;;;24.13;6.68;;;10.20;99.90;;;-144.05;63.40;56893.44;5019123;28;20040;-79
2023/05/26 05:45:39;;;;;;;32.63;6.97;;;10.30;99.90;;;-144.05;62.04;56893.44;5036432;28;20037;-79
2023/05/26 05:48:05;;;;;;;32.13;6.50;;;10.50;99.90;;;-144.05;62.20;56929.53;5037510;28;20048;-80
2023/05/26 05:50:31;;;;;;;34.35;7.47;;;10.50;99.90;;;-144.05;61.06;56904.06;5037093;28;20040;-80
2023/05/26 05:52:57;;;;;;;28.30;5.63;;;10.50;99.90;;;-144.05;61.04;56880.69;5035482;28;20029;-81
2023/05/26 05:55:23;;;;;;;26.27;5.63;;;10.60;99.90;;;-144.05;61.07;56908.31;5035730;28;20127;-80
2023/05/26 05:57:50;;;;;;;24.42;5.85;;;10.60;99.90;;;-144.05;60.73;56897.69;5034996;28;20033;-80
2023/05/26 06:00:16;;;;;;;27.45;6.15;;;10.80;99.90;;;-144.05;59.94;56904.06;5036266;28;20025;-79
2023/05/26 06:02:42;;;;;;;26.80;5.97;;;10.90;99.90;;;-144.05;59.43;56897.69;5036642;28;20468;-80
2023/05/26 06:05:08;;;;;;;24.75;5.63;;;11.00;99.90;;;-144.05;59.26;56882.81;5036340;28;20021;-80
2023/05/26 06:07:34;;;;;;;30.30;6.03;;;10.90;99.90;;;-144.05;58.90;56897.69;5035715;28;20029;-80
2023/05/26 06:10:00;;;;;;;37.42;7.78;;;11.00;99.90;;;-144.05;58.56;56880.69;5036118;28;20140;-78
2023/05/26 06:12:26;;;;;;;37.40;6.78;;;11.00;99.90;;;-144.05;58.99;56882.81;5034262;28;20098;-79
2023/05/26 06:14:51;;;;;;;32.72;7.43;;;10.90;99.90;;;-144.05;58.22;56901.94;5035912;28;20052;-80
2023/05/26 06:17:17;;;;;;;31.58;7.10;;;11.00;99.90;;;-144.05;58.23;56908.31;5035750;28;20037;-80
2023/05/26 06:19:43;;;;;;;34.00;7.40;;;10.90;99.90;;;-144.05;59.15;56876.44;5034631;28;20403;-80
2023/05/26 06:22:09;;;;;;;36.80;7.95;;;10.80;99.90;;;-144.05;59.72;56893.44;5034890;28;20029;-80
2023/05/26 06:24:35;;;;;;;35.72;7.68;;;10.70;99.90;;;-144.05;59.30;56897.69;5035910;28;20029;-80
2023/05/26 06:27:01;;;;;;;30.20;7.38;;;10.80;99.90;;;-144.05;59.38;56912.56;5035624;28;20041;-79
2023/05/26 06:29:27;;;;;;;37.78;8.95;;;10.70;99.90;;;-144.05;59.16;56893.44;5035548;28;20025;-80
2023/05/26 06:31:54;;;;;;;34.85;7.88;;;10.70;99.90;;;-144.05;59.24;56893.44;5036218;28;20021;-78
2023/05/26 06:34:20;;;;;;;29.05;7.30;;;10.80;99.90;;;-144.05;58.74;56897.69;5035604;28;20033;-79
2023/05/26 06:36:45;;;;;;;28.55;7.35;;;10.90;99.90;;;-144.05;57.96;56893.44;5035622;28;20033;-81
2023/05/26 06:39:11;;;;;;;29.45;7.35;;;11.10;99.90;;;-144.05;56.71;56876.44;5033711;28;20037;-79
2023/05/26 06:41:37;;;;;;;28.67;7.07;;;11.10;99.90;;;-144.05;56.88;56931.66;5034791;28;20390;-80
2023/05/26 06:44:03;;;;;;;33.85;8.80;;;11.20;99.90;;;-144.05;56.09;56921.06;5035416;28;20068;-78
2023/05/26 06:46:30;;;;;;;31.70;7.72;;;11.30;99.90;;;-144.05;56.14;56889.19;5018052;28;20115;-80
2023/05/26 06:48:56;;;;;;;33.08;7.63;;;11.20;99.90;;;-144.05;56.86;56904.06;5034673;28;20028;-79
2023/05/26 06:51:22;;;;;;;31.42;6.90;;;11.20;99.90;;;-144.05;56.47;56884.94;5016899;28;20116;-80
2023/05/26 06:53:48;;;;;;;28.23;6.93;;;11.30;99.90;;;-144.05;56.28;56895.56;5034085;28;20105;-78
2023/05/26 06:56:14;;;;;;;25.48;7.22;;;11.50;99.90;;;-144.05;55.77;56895.56;5034000;28;20101;-78
2023/05/26 06:58:40;;;;;;;34.42;7.95;;;11.60;99.90;;;-144.05;54.67;56878.56;5034752;28;20029;-79
2023/05/26 07:01:07;;;;;;;28.73;7.43;;;11.70;99.90;;;-144.05;55.07;56895.56;5034726;28;20500;-79
2023/05/26 07:03:32;;;;;;;23.70;7.00;;;11.70;99.90;;;-144.05;54.51;56887.06;5034048;28;20159;-79
2023/05/26 07:05:59;;;;;;;27.50;7.05;;;11.90;99.90;;;-144.05;53.97;56874.31;5033876;28;20029;-78
2023/05/26 07:08:26;;;;;;;27.27;6.93;;;12.30;99.90;;;-144.05;52.14;56914.69;5035074;28;20030;-78
2023/05/26 07:10:52;;;;;;;27.23;7.78;;;12.80;99.90;;;-144.05;50.75;56876.44;5031969;28;20029;-79
2023/05/26 07:13:19;;;;;;;30.70;8.73;;;13.20;99.90;;;-144.05;49.64;56887.06;5015835;28;20048;-78
2023/05/26 07:15:45;;;;;;;27.08;7.50;;;13.30;99.90;;;-144.05;48.63;56893.44;5034045;28;20075;-77
2023/05/26 07:18:12;;;;;;;31.25;7.30;;;13.70;99.90;;;-144.05;48.74;56891.31;5034246;28;20399;-78
2023/05/26 07:20:38;;;;;;;29.20;8.30;;;13.60;99.90;;;-144.05;48.80;56910.44;5033031;28;20406;-78
2023/05/26 07:23:04;;;;;;;33.45;7.70;;;13.60;99.90;;;-144.05;48.88;56872.19;5034317;28;20104;-81
2023/05/26 07:25:30;;;;;;;27.85;8.30;;;13.30;99.90;;;-144.05;50.25;56891.31;5034892;28;20067;-79
2023/05/26 07:27:56;;;;;;;29.02;8.30;;;13.10;99.90;;;-144.05;50.38;56895.56;5034052;28;20029;-79
2023/05/26 07:30:22;;;;;;;26.35;7.22;;;13.10;99.90;;;-144.05;49.61;56876.44;5037990;28;20021;-79
2023/05/26 07:32:48;;;;;;;26.63;7.53;;;13.40;99.90;;;-144.05;48.33;56891.31;5039357;28;20526;-78
2023/05/26 07:35:14;;;;;;;25.98;7.18;;;13.70;99.90;;;-144.05;48.56;56870.06;5035058;28;20037;-78
2023/05/26 07:37:40;;;;;;;29.27;7.57;;;13.70;99.90;;;-144.05;47.10;56880.69;5033113;28;20116;-80
2023/05/26 07:40:07;;;;;;;32.40;8.30;;;14.10;99.90;;;-144.05;46.39;56876.44;5035159;28;20124;-81
2023/05/26 07:42:34;;;;;;;29.58;7.47;;;14.50;99.90;;;-144.05;45.01;56876.44;5016581;28;20044;-78
2023/05/26 07:45:01;;;;;;;24.83;7.85;;;15.10;99.90;;;-144.05;44.73;56872.19;5033664;28;20025;-81
2023/05/26 07:47:31;;;;;;;20.67;6.00;;;14.90;99.90;;;-144.05;45.15;56901.94;5033178;28;20425;-79
2023/05/26 07:50:00;;;;;;;25.98;7.43;;;15.00;99.90;;;-144.05;44.87;56882.81;5034035;28;20083;-79
2023/05/26 07:52:27;;;;;;;25.85;8.00;;;15.10;99.90;;;-144.05;45.08;56889.19;5035312;28;20115;-80
2023/05/26 07:54:53;;;;;;;30.60;7.65;;;14.80;99.90;;;-144.05;46.19;56906.19;5033975;28;20029;-80
2023/05/26 07:57:19;;;;;;;32.33;8.52;;;14.40;99.90;;;-144.05;46.40;56880.69;5035085;28;20040;-80
2023/05/26 07:59:45;;;;;;;30.30;9.30;;;14.50;99.90;;;-144.05;45.47;56867.94;5034491;28;20030;-79
2023/05/26 08:02:11;;;;;;;29.67;8.95;;;14.40;99.90;;;-144.05;45.32;56893.44;5016677;28;20111;-79
2023/05/26 08:04:38;;;;;;;34.75;9.25;;;14.50;99.90;;;-144.05;46.48;56884.94;5037166;28;20032;-79
2023/05/26 08:07:05;;;;;;;25.95;7.57;;;14.30;99.90;;;-144.05;46.27;56895.56;5040105;28;20060;-79
2023/05/26 08:09:30;;;;;;;23.98;7.53;;;14.30;99.90;;;-144.05;44.90;56872.19;5039533;28;20025;-81
2023/05/26 08:11:56;;;;;;;25.42;7.07;;;15.10;99.90;;;-144.05;43.71;56899.81;5037570;28;20489;-80
2023/05/26 08:14:23;;;;;;;27.33;6.85;;;15.60;99.90;;;-144.05;43.84;56889.19;5039199;28;20025;-79
2023/05/26 08:16:49;;;;;;;28.30;7.65;;;15.60;99.90;;;-144.05;44.04;56878.56;5021127;28;20026;-81
2023/05/26 08:19:15;;;;;;;34.47;7.75;;;15.20;99.90;;;-144.05;45.40;56889.19;5038631;28;20037;-80
2023/05/26 08:21:41;;;;;;;27.33;6.43;;;15.10;99.90;;;-144.05;45.52;56904.06;5039103;28;20132;-79
2023/05/26 08:24:07;;;;;;;19.38;5.97;;;15.20;99.90;;;-144.05;44.48;56912.56;5037648;28;20048;-80
2023/05/26 08:26:33;;;;;;;32.30;6.75;;;15.10;99.90;;;-144.05;44.21;56908.31;5021153;28;20510;-79
2023/05/26 08:28:58;;;;;;;25.00;6.85;;;15.30;99.90;;;-144.05;43.98;56889.19;5038535;28;20030;-80
2023/05/26 08:31:25;;;;;;;25.73;6.70;;;15.40;99.90;;;-144.05;42.79;56916.81;5038101;28;20021;-78
2023/05/26 08:33:51;;;;;;;20.17;6.35;;;15.90;99.90;;;-144.05;40.78;56891.31;5037098;28;20087;-80
2023/05/26 08:36:17;;;;;;;25.20;6.95;;;16.70;99.90;;;-144.05;40.17;56929.53;5037634;28;20530;-78
2023/05/26 08:38:42;;;;;;;29.40;6.18;;;17.10;99.90;;;-144.05;39.77;56910.44;5038421;28;20053;-78
2023/05/26 08:41:17;;;;;;;26.13;6.30;;;17.40;99.90;;;-144.05;40.17;56929.53;5039020;28;20037;-78
2023/05/26 08:43:55;;;;;;;22.90;6.15;;;17.00;99.90;;;-144.05;41.19;56891.31;5038594;28;20506;-80
2023/05/26 08:46:22;;;;;;;25.95;5.53;;;16.80;99.90;;;-144.05;40.92;56872.19;5040379;28;20025;-80
2023/05/26 08:48:51;;;;;;;22.15;5.97;;;16.40;99.90;;;-144.05;41.89;56908.31;5038849;28;20028;-81
2023/05/26 08:51:17;;;;;;;21.20;5.90;;;16.10;99.90;;;-144.05;42.36;56897.69;5037644;28;20029;-81
2023/05/26 08:53:47;;;;;;;23.73;6.28;;;15.90;99.90;;;-144.05;41.85;56878.56;5038249;28;20041;-81
2023/05/26 08:56:13;;;;;;;20.65;6.18;;;16.00;99.90;;;-144.05;42.95;56891.31;5036503;28;20022;-81
2023/05/26 08:58:42;;;;;;;25.08;5.97;;;15.90;99.90;;;-144.05;42.24;56908.31;5036594;28;20139;-82
2023/05/26 09:01:09;;;;;;;28.08;6.47;;;16.00;99.90;;;-144.05;41.60;56893.44;5036645;28;20026;-82
2023/05/26 09:03:36;;;;;;;24.77;6.38;;;16.00;99.90;;;-144.05;41.69;56887.06;5037461;28;20037;-79
2023/05/26 09:06:02;;;;;;;30.92;6.68;;;16.30;99.90;;;-144.05;40.29;56908.31;5036456;28;20152;-80
2023/05/26 09:08:29;;;;;;;17.35;5.05;;;16.90;99.90;;;-144.05;40.38;56908.31;5037673;28;20033;-81
2023/05/26 09:10:55;;;;;;;24.25;6.88;;;17.10;99.90;;;-144.05;40.25;56904.06;5037866;28;20025;-80
2023/05/26 09:13:23;;;;;;;19.77;5.70;;;17.20;99.90;;;-144.05;39.54;56918.94;5038294;28;20041;-81
2023/05/26 09:15:52;;;;;;;19.83;5.60;;;17.60;99.90;;;-144.05;38.67;56921.06;5037787;28;20025;-81
2023/05/26 09:18:18;;;;;;;25.77;5.65;;;17.60;99.90;;;-144.05;39.06;56921.06;5036303;28;20029;-81
2023/05/26 09:20:49;;;;;;;24.88;6.47;;;17.70;99.90;;;-144.05;38.58;56921.06;5038236;28;20449;-81
2023/05/26 09:23:21;;;;;;;22.17;5.85;;;17.60;99.90;;;-144.05;39.11;56912.56;5037432;28;20410;-80
2023/05/26 09:25:51;;;;;;;20.90;5.47;;;17.40;99.90;;;-144.05;39.52;56884.94;5037874;28;20057;-80
2023/05/26 09:28:20;;;;;;;20.65;5.28;;;17.20;99.90;;;-144.05;39.12;56912.56;5036407;28;20117;-81
2023/05/26 09:30:47;;;;;;;25.65;5.82;;;17.50;99.90;;;-144.05;38.64;56908.31;5037636;28;20029;-80
2023/05/26 09:33:16;;;;;;;23.13;5.45;;;17.90;99.90;;;-144.05;37.30;56921.06;5037421;28;20026;-80
2023/05/26 09:35:47;;;;;;;20.45;5.80;;;18.00;99.90;;;-144.05;38.32;56878.56;5037995;28;20061;-81
2023/05/26 09:38:17;;;;;;;19.23;5.03;;;18.00;99.90;;;-144.05;38.53;56931.66;5037524;28;20059;-80
2023/05/26 09:40:47;;;;;;;20.08;5.07;;;17.90;99.90;;;-144.05;37.72;56918.94;5035407;28;20025;-79
2023/05/26 09:43:19;;;;;;;27.50;6.32;;;17.90;99.90;;;-144.05;37.72;56908.31;5036265;28;20033;-81
2023/05/26 09:45:45;;;;;;;23.25;6.47;;;18.00;99.90;;;-144.05;37.63;56906.19;5037160;28;20037;-82
2023/05/26 09:48:11;;;;;;;27.70;6.43;;;18.10;99.90;;;-144.05;36.89;56912.56;5037598;28;20450;-82
2023/05/26 09:53:09;;;;;;;20.40;4.78;;;18.60;99.90;;;-144.05;36.59;56938.03;5059873;23;20056;-82
2023/05/26 09:55:43;;;;;;;21.52;5.78;;;18.70;99.90;;;-144.05;36.12;56929.53;5040721;28;20448;-82
2023/05/26 09:58:12;;;;;;;23.95;5.60;;;19.00;99.90;;;-144.05;35.87;56950.78;5042250;28;20025;-81
2023/05/26 10:00:44;;;;;;;23.70;5.60;;;19.00;99.90;;;-144.05;36.20;56957.16;5040157;28;20406;-80
2023/05/26 10:03:12;;;;;;;18.77;5.82;;;19.10;99.90;;;-144.05;37.12;56935.91;5036657;28;20029;-81
2023/05/26 10:05:45;;;;;;;17.98;5.72;;;18.90;99.90;;;-144.05;36.75;56942.28;5019756;28;20045;-83
2023/05/26 10:08:18;;;;;;;27.38;5.68;;;19.00;99.90;;;-144.05;36.67;56931.66;5037304;28;20034;-82